Time;durP1;ratioP1;P1;durP2;ratioP2;P2;SDS_P1;SDS_P2;PMS_P1;PMS_P2;Temp;Humidity;BMP_temperature;BMP_pressure;BME280_temperature;BME280_humidity;BME280_pressure;Samples;Min_cycle;Max_cycle;Signal;HPM_P1;HPM_P2
2022/11/19 00:00:37;;;;;;;6.90;3.77;;;;;;;;;;4925077;29;20243;-94
2022/11/19 00:03:03;;;;;;;2.80;2.63;;;;;;;;;;4924639;29;20188;-94
2022/11/19 00:05:29;;;;;;;3.30;2.90;;;;;;;;;;4910627;29;20185;-90
2022/11/19 00:07:55;;;;;;;4.23;3.47;;;;;;;;;;4911725;29;20219;-94
2022/11/19 00:10:21;;;;;;;4.30;3.40;;;;;;;;;;4921334;29;20701;-93
2022/11/19 00:12:56;;;;;;;3.80;2.87;;;;;;;;;;4921023;29;20195;-92
2022/11/19 00:15:22;;;;;;;4.37;3.63;;;-1.50;99.90;;;;;;4905848;29;20195;-94
2022/11/19 00:17:48;;;;;;;7.30;4.53;;;;;;;;;;4905444;29;20197;-95
2022/11/19 00:20:16;;;;;;;3.40;3.03;;;;;;;;;;4885518;29;20236;-95
2022/11/19 00:22:42;;;;;;;5.53;3.23;;;-1.50;99.90;;;;;;4901903;29;20548;-94
2022/11/19 00:25:08;;;;;;;6.73;3.80;;;0.80;99.90;;;;;;4885712;29;20184;-95
2022/11/19 00:27:34;;;;;;;7.03;4.87;;;;;;;;;;4875881;29;20200;-96
2022/11/19 00:30:01;;;;;;;8.30;4.60;;;-1.50;99.90;;;;;;4887932;29;20196;-95
2022/11/19 00:32:27;;;;;;;7.60;3.77;;;;;;;;;;4901481;29;20285;-93
2022/11/19 00:34:53;;;;;;;4.60;3.80;;;;;;;;;;4902421;29;20235;-94
2022/11/19 00:37:19;;;;;;;4.37;3.33;;;;;;;;;;4900985;29;20191;-96
2022/11/19 00:39:45;;;;;;;12.57;3.93;;;-1.60;99.90;;;;;;4900601;29;20193;-95
2022/11/19 00:42:11;;;;;;;4.33;3.60;;;;;;;;;;4884497;29;20618;-96
2022/11/19 00:44:37;;;;;;;5.37;4.43;;;-1.60;99.90;;;;;;4900800;29;20189;-94
2022/11/19 00:47:02;;;;;;;7.63;4.13;;;-1.70;99.90;;;;;;4901253;29;20276;-90
2022/11/19 00:49:28;;;;;;;2.63;2.40;;;-1.80;99.90;;;;;;4901983;29;20269;-94
2022/11/19 00:51:54;;;;;;;4.33;2.53;;;-1.80;99.90;;;;;;4870108;29;20213;-96
2022/11/19 00:54:20;;;;;;;6.93;5.47;;;;;;;;;;4877203;29;20198;-93
2022/11/19 00:56:45;;;;;;;7.13;3.40;;;-1.70;99.90;;;;;;4900753;29;20193;-93
2022/11/19 00:59:11;;;;;;;5.90;3.67;;;-1.80;99.90;;;;;;4900089;29;20333;-95
2022/11/19 01:01:38;;;;;;;7.93;4.43;;;-0.90;99.90;;;;;;4886277;29;20358;-94
2022/11/19 01:04:05;;;;;;;2.73;2.53;;;-0.90;99.90;;;;;;4902478;29;20198;-95
2022/11/19 01:06:31;;;;;;;4.30;2.77;;;;;;;;;;4902947;29;20182;-95
2022/11/19 01:08:57;;;;;;;2.60;2.43;;;-1.70;99.90;;;;;;4902481;29;20186;-96
2022/11/19 01:11:32;;;;;;;2.60;2.43;;;1.00;99.90;;;;;;4901485;29;20227;-96
2022/11/19 01:13:59;;;;;;;3.10;2.90;;;-1.70;99.90;;;;;;4902662;29;20182;-95
2022/11/19 01:16:37;;;;;;;2.87;2.67;;;-1.70;99.90;;;;;;4901221;29;20182;-96
2022/11/19 01:19:04;;;;;;;5.73;3.90;;;1.80;99.90;;;;;;4900665;29;20182;-96
2022/11/19 01:21:32;;;;;;;4.83;3.50;;;-1.70;99.90;;;;;;4901019;29;20230;-96
2022/11/19 01:23:58;;;;;;;3.00;2.73;;;-1.70;99.90;;;;;;4901058;29;20177;-95
2022/11/19 01:26:24;;;;;;;3.97;3.47;;;0.70;99.90;;;;;;4901227;29;20190;-95
2022/11/19 01:28:50;;;;;;;10.77;4.20;;;-0.10;99.90;;;;;;4901249;29;20197;-94
2022/11/19 01:31:21;;;;;;;10.30;4.40;;;-1.70;99.90;;;;;;4899839;29;20341;-96
2022/11/19 01:33:48;;;;;;;3.70;3.40;;;-1.70;99.90;;;;;;4901049;29;20259;-95
2022/11/19 01:36:22;;;;;;;5.67;3.83;;;-1.70;99.90;;;;;;4885289;29;20224;-96
2022/11/19 01:38:53;;;;;;;4.83;3.17;;;-0.80;99.90;;;;;;4901423;29;20173;-96
2022/11/19 01:41:20;;;;;;;7.33;4.70;;;-1.70;99.90;;;;;;4900880;29;20253;-96
2022/11/19 01:44:28;;;;;;;4.30;2.27;;;-1.80;99.90;;;;;;4900999;29;20291;-95
2022/11/19 01:46:53;;;;;;;11.07;5.47;;;;;;;;;;4901885;29;20201;-94
2022/11/19 01:49:19;;;;;;;5.37;3.10;;;-1.70;99.90;;;;;;4902398;29;20569;-96
2022/11/19 01:51:53;;;;;;;9.13;4.50;;;0.60;99.90;;;;;;4901261;29;20275;-95
2022/11/19 01:54:19;;;;;;;2.37;2.17;;;;;;;;;;4900958;29;20199;-95
2022/11/19 01:56:45;;;;;;;11.63;5.27;;;;;;;;;;4899359;29;20702;-94
2022/11/19 01:59:15;;;;;;;8.67;4.57;;;-1.70;99.90;;;;;;4900865;29;20177;-90
2022/11/19 02:01:43;;;;;;;4.57;3.23;;;-1.60;99.90;;;;;;4917333;29;20242;-96
2022/11/19 02:04:11;;;;;;;2.80;2.37;;;0.40;99.90;;;;;;4900548;29;20196;-93
2022/11/19 02:06:38;;;;;;;9.30;4.90;;;-1.90;99.90;;;;;;4915451;29;20191;-93
2022/11/19 02:09:04;;;;;;;5.73;3.43;;;-1.90;99.90;;;;;;4883614;29;20285;-94
2022/11/19 02:11:41;;;;;;;4.23;3.30;;;-2.00;99.90;;;;;;4899001;29;20303;-95
2022/11/19 02:14:39;;;;;;;5.30;4.57;;;-1.80;99.90;;;;;;4899685;29;20207;-95
2022/11/19 02:17:14;;;;;;;8.80;4.43;;;-1.80;99.90;;;;;;4896016;29;20291;-94
2022/11/19 02:20:04;;;;;;;4.07;3.07;;;-1.80;99.90;;;;;;4919623;29;20183;-94
2022/11/19 02:22:54;;;;;;;7.00;3.73;;;-1.70;99.90;;;;;;4902575;29;20189;-94
2022/11/19 02:26:01;;;;;;;6.70;5.47;;;-1.70;99.90;;;;;;4907833;29;20184;-95
2022/11/19 02:28:41;;;;;;;7.40;3.27;;;-1.80;99.90;;;;;;4903868;29;20171;-94
2022/11/19 02:31:24;;;;;;;5.67;3.53;;;-1.80;99.90;;;;;;4898160;29;20209;-94
2022/11/19 02:33:50;;;;;;;14.07;4.97;;;;;;;;;;4899670;29;20202;-94
2022/11/19 02:36:27;;;;;;;5.37;4.53;;;-1.80;99.90;;;;;;4899238;29;20184;-91
2022/11/19 02:39:07;;;;;;;7.80;4.63;;;-1.90;99.90;;;;;;4899612;29;20301;-95
2022/11/19 02:41:50;;;;;;;4.47;3.30;;;-1.80;99.90;;;;;;4914313;29;20191;-95
2022/11/19 02:47:21;;;;;;;3.13;2.83;;;-1.90;99.90;;;;;;4899296;29;20249;-95
2022/11/19 02:49:53;;;;;;;3.53;2.83;;;-1.80;99.90;;;;;;4898818;29;20187;-94
2022/11/19 02:52:19;;;;;;;2.70;2.20;;;;;;;;;;4897884;29;20206;-93
2022/11/19 02:54:45;;;;;;;5.93;4.03;;;;;;;;;;4882597;29;20246;-93
2022/11/19 02:57:11;;;;;;;3.83;3.43;;;-1.90;99.90;;;;;;4899015;29;20182;-94
2022/11/19 03:05:25;;;;;;;3.23;2.93;;;-1.90;99.90;;;;;;4898680;29;20227;-94
2022/11/19 03:07:51;;;;;;;9.07;3.10;;;;;;;;;;4898978;29;20698;-94
2022/11/19 03:10:19;;;;;;;3.10;2.80;;;;;;;;;;4882728;29;20186;-94
2022/11/19 03:18:59;;;;;;;4.33;3.13;;;-1.90;99.90;;;;;;4915233;29;20263;-94
2022/11/19 03:21:37;;;;;;;9.40;3.53;;;-2.00;99.90;;;;;;4916229;29;20193;-94
2022/11/19 03:24:17;;;;;;;3.33;3.03;;;-2.00;99.90;;;;;;4906474;29;20179;-94
2022/11/19 03:26:50;;;;;;;3.13;2.50;;;-2.00;99.90;;;;;;4909555;29;20652;-93
2022/11/19 03:29:17;;;;;;;9.43;3.73;;;-2.10;99.90;;;;;;4919226;29;20555;-93
2022/11/19 03:31:47;;;;;;;3.87;3.10;;;-2.00;99.90;;;;;;4919435;29;20219;-95
2022/11/19 03:34:17;;;;;;;6.80;4.57;;;-2.10;99.90;;;;;;4919882;29;20212;-94
2022/11/19 03:36:44;;;;;;;6.83;3.43;;;-2.00;99.90;;;;;;4920591;29;20180;-96
2022/11/19 03:39:16;;;;;;;4.23;3.40;;;-1.70;99.90;;;;;;4920654;29;20181;-94
2022/11/19 03:41:44;;;;;;;3.30;3.03;;;;;;;;;;4921313;29;20219;-93
2022/11/19 03:44:23;;;;;;;3.00;2.70;;;-2.00;99.90;;;;;;4919731;29;20197;-95
2022/11/19 03:46:54;;;;;;;3.27;3.07;;;-2.00;99.90;;;;;;4920612;29;20254;-94
2022/11/19 03:49:23;;;;;;;6.93;2.30;;;;;;;;;;4919727;29;20226;-94
2022/11/19 03:51:51;;;;;;;4.67;3.63;;;;;;;;;;4920060;29;20220;-93
2022/11/19 03:54:17;;;;;;;4.60;3.00;;;;;;;;;;4919460;29;20283;-94
2022/11/19 03:56:44;;;;;;;9.70;5.17;;;;;;;;;;4918943;29;20549;-94
2022/11/19 03:59:11;;;;;;;7.30;5.50;;;;;;;;;;4919491;29;20209;-93
2022/11/19 04:01:38;;;;;;;9.20;3.20;;;;;;;;;;4920657;29;20350;-91
2022/11/19 04:06:48;;;;;;;5.93;4.30;;;;;;;;;;4919810;29;20650;-94
2022/11/19 04:09:14;;;;;;;6.23;3.03;;;;;;;;;;4903748;29;20199;-94
2022/11/19 04:11:42;;;;;;;7.63;5.17;;;;;;;;;;4918993;29;20212;-93
2022/11/19 04:14:08;;;;;;;6.33;3.93;;;;;;;;;;4926400;29;20185;-96
2022/11/19 04:16:34;;;;;;;11.90;6.53;;;;;;;;;;4923094;29;20228;-93
2022/11/19 04:19:00;;;;;;;5.60;3.53;;;;;;;;;;4891283;29;20189;-95
2022/11/19 04:21:25;;;;;;;3.57;3.23;;;-1.90;99.90;;;;;;4902005;29;20194;-95
2022/11/19 04:23:51;;;;;;;9.43;4.23;;;;;;;;;;4916566;29;20271;-94
2022/11/19 04:26:17;;;;;;;6.07;4.07;;;-1.70;99.90;;;;;;4901193;29;20549;-94
2022/11/19 04:28:42;;;;;;;9.23;4.93;;;-1.70;99.90;;;;;;4885772;29;20221;-94
2022/11/19 04:31:08;;;;;;;10.60;5.80;;;-1.70;99.90;;;;;;4901993;29;20658;-96
2022/11/19 04:33:33;;;;;;;3.67;2.97;;;-2.10;99.90;;;;;;4885043;29;20192;-95
2022/11/19 04:35:59;;;;;;;8.73;4.50;;;;;;;;;;4886816;29;20653;-96
2022/11/19 04:38:25;;;;;;;9.47;5.43;;;-2.20;99.90;;;;;;4886108;29;20192;-95
2022/11/19 04:40:51;;;;;;;7.80;4.43;;;-2.00;99.90;;;;;;4887230;29;20208;-96
2022/11/19 04:43:16;;;;;;;4.27;3.87;;;;;;;;;;4904051;29;20228;-95
2022/11/19 04:45:42;;;;;;;8.87;4.50;;;;;;;;;;4901445;29;20193;-94
2022/11/19 04:48:10;;;;;;;5.07;4.33;;;-2.20;99.90;;;;;;4886581;29;20216;-94
2022/11/19 04:50:36;;;;;;;3.87;3.37;;;;;;;;;;4905228;29;20211;-95
2022/11/19 04:53:02;;;;;;;6.67;4.67;;;-2.20;99.90;;;;;;4910316;29;20202;-95
2022/11/19 04:55:28;;;;;;;9.63;4.93;;;;;;;;;;4922905;29;20181;-93
2022/11/19 04:57:54;;;;;;;4.23;2.87;;;;;;;;;;4923541;29;20191;-92
2022/11/19 05:00:20;;;;;;;3.87;2.73;;;;;;;;;;4919074;29;20226;-94
2022/11/19 05:02:46;;;;;;;7.90;3.37;;;;;;;;;;4923144;29;20183;-93
2022/11/19 05:05:12;;;;;;;4.67;3.17;;;-2.30;99.90;;;;;;4919682;29;20193;-94
2022/11/19 05:07:38;;;;;;;11.03;5.07;;;;;;;;;;4905087;29;20217;-94
2022/11/19 05:10:04;;;;;;;8.87;4.83;;;-2.10;99.90;;;;;;4910615;29;20253;-94
2022/11/19 05:12:30;;;;;;;4.13;3.73;;;;;;;;;;4912462;29;20209;-96
2022/11/19 05:14:55;;;;;;;4.60;3.97;;;-2.10;99.90;;;;;;4914578;29;20204;-96
2022/11/19 05:17:21;;;;;;;4.33;3.60;;;-2.20;99.90;;;;;;4913395;29;20195;-96
2022/11/19 05:19:47;;;;;;;9.97;3.50;;;-2.10;99.90;;;;;;4886097;29;20619;-96
2022/11/19 05:22:12;;;;;;;5.67;3.60;;;-2.10;99.90;;;;;;4885969;29;20272;-95
2022/11/19 05:24:38;;;;;;;4.17;3.33;;;-1.80;99.90;;;;;;4902265;29;20189;-96
2022/11/19 05:27:03;;;;;;;10.87;5.33;;;-2.00;99.90;;;;;;4888614;29;20217;-96
2022/11/19 05:29:29;;;;;;;5.10;4.57;;;-2.10;99.90;;;;;;4886613;29;20689;-96
2022/11/19 05:31:55;;;;;;;4.77;4.17;;;-2.10;99.90;;;;;;4899781;29;20230;-95
2022/11/19 05:34:21;;;;;;;4.73;3.57;;;-2.20;99.90;;;;;;4899463;29;20622;-95
2022/11/19 05:36:46;;;;;;;7.00;4.60;;;-2.20;99.90;;;;;;4899355;29;20652;-96
2022/11/19 05:39:12;;;;;;;5.47;4.23;;;-0.30;99.90;;;;;;4900554;29;20267;-96
2022/11/19 05:41:40;;;;;;;5.13;4.53;;;-2.30;99.90;;;;;;4905631;29;20186;-96
2022/11/19 05:44:06;;;;;;;3.83;3.43;;;;;;;;;;4891029;29;20190;-96
2022/11/19 05:46:32;;;;;;;6.87;4.43;;;;;;;;;;4909964;29;20185;-96
2022/11/19 05:48:58;;;;;;;4.73;3.43;;;;;;;;;;4913178;29;20640;-96
2022/11/19 05:51:24;;;;;;;3.47;3.07;;;;;;;;;;4906206;29;20225;-96
2022/11/19 05:53:50;;;;;;;10.50;4.70;;;;;;;;;;4910977;29;20250;-96
2022/11/19 05:56:17;;;;;;;5.47;3.57;;;;;;;;;;4908474;29;20204;-96
2022/11/19 05:58:43;;;;;;;5.87;3.57;;;;;;;;;;4911327;29;20237;-96
2022/11/19 06:01:09;;;;;;;2.60;2.47;;;;;;;;;;4918202;29;20226;-96
2022/11/19 06:06:19;;;;;;;5.23;4.17;;;-2.20;99.90;;;;;;5036642;23;20224;-90
2022/11/19 06:09:02;;;;;;;;;;;;;;;;;;;;;
2022/11/19 06:11:46;;;;;;;10.70;4.63;;;;;;;;;;4962348;29;20177;-89
2022/11/19 06:14:23;;;;;;;7.97;5.70;;;-2.20;99.90;;;;;;4961907;29;20146;-89
2022/11/19 06:17:09;;;;;;;13.50;5.13;;;-2.10;99.90;;;;;;4961817;29;20136;-89
2022/11/19 06:19:36;;;;;;;8.73;4.40;;;;;;;;;;4961424;29;20158;-89
2022/11/19 06:22:04;;;;;;;4.63;4.10;;;;;;;;;;4959521;28;20176;-93
2022/11/19 06:24:30;;;;;;;4.47;3.30;;;;;;;;;;4951715;28;20191;-92
2022/11/19 06:26:58;;;;;;;5.47;4.43;;;;;;;;;;4958037;28;20204;-91
2022/11/19 06:29:24;;;;;;;4.43;3.50;;;;;;;;;;4955859;28;20186;-90
2022/11/19 06:31:50;;;;;;;6.37;3.17;;;;;;;;;;4956209;28;20200;-88
2022/11/19 06:34:16;;;;;;;7.97;4.70;;;;;;;;;;4957579;28;20203;-89
2022/11/19 06:36:48;;;;;;;5.47;4.40;;;;;;;;;;4951944;28;20197;-90
2022/11/19 06:39:14;;;;;;;5.70;4.17;;;;;;;;;;4942910;29;20256;-95
2022/11/19 06:41:40;;;;;;;8.47;4.63;;;;;;;;;;4934293;29;20225;-91
2022/11/19 06:44:06;;;;;;;4.40;3.07;;;;;;;;;;4918191;29;20254;-90
2022/11/19 06:46:32;;;;;;;5.13;3.37;;;;;;;;;;4919569;29;20226;-94
2022/11/19 06:48:58;;;;;;;8.23;4.30;;;;;;;;;;4935422;29;20208;-89
2022/11/19 06:51:24;;;;;;;13.43;7.13;;;;;;;;;;4934608;29;20224;-92
2022/11/19 06:53:50;;;;;;;9.77;6.00;;;;;;;;;;4936000;29;20212;-92
2022/11/19 06:56:16;;;;;;;9.90;5.73;;;;;;;;;;4934484;29;20198;-90
2022/11/19 06:58:43;;;;;;;7.30;5.03;;;;;;;;;;4918313;29;20673;-90
2022/11/19 07:01:13;;;;;;;11.13;6.43;;;-2.50;99.90;;;;;;4939260;29;20284;-92
2022/11/19 07:03:39;;;;;;;6.20;4.60;;;;;;;;;;4937777;29;20642;-94
2022/11/19 07:06:05;;;;;;;5.23;3.67;;;;;;;;;;4939316;29;20233;-91
2022/11/19 07:08:36;;;;;;;6.63;3.70;;;-2.40;99.90;;;;;;4938672;29;20186;-91
2022/11/19 07:11:24;;;;;;;6.03;3.83;;;-2.30;99.90;;;;;;4940569;29;20211;-92
2022/11/19 07:13:58;;;;;;;12.20;7.00;;;;;;;;;;4948788;29;20526;-91
2022/11/19 07:16:33;;;;;;;5.80;4.50;;;-2.50;99.90;;;;;;4945201;29;20194;-91
2022/11/19 07:19:00;;;;;;;7.00;4.83;;;-2.30;99.90;;;;;;4937093;29;20234;-91
2022/11/19 07:21:27;;;;;;;7.20;4.50;;;-1.20;99.90;;;;;;4935328;29;20186;-90
2022/11/19 07:23:56;;;;;;;3.30;3.00;;;-2.30;99.90;;;;;;4936708;29;20641;-89
2022/11/19 07:26:22;;;;;;;4.40;3.90;;;-2.20;99.90;;;;;;4940460;29;20304;-91
2022/11/19 07:28:48;;;;;;;6.97;5.13;;;-2.20;99.90;;;;;;4920809;29;20181;-89
2022/11/19 07:31:14;;;;;;;4.30;3.83;;;;;;;;;;4937228;29;20224;-90
2022/11/19 07:33:40;;;;;;;6.97;4.33;;;;;;;;;;4921791;29;20644;-94
2022/11/19 07:36:07;;;;;;;8.33;5.70;;;-2.10;99.90;;;;;;4937750;29;20213;-94
2022/11/19 07:38:33;;;;;;;5.47;3.93;;;-2.10;99.90;;;;;;4922665;29;20188;-92
2022/11/19 07:40:59;;;;;;;5.67;4.27;;;0.10;99.90;;;;;;4919303;29;20193;-90
2022/11/19 07:43:25;;;;;;;7.43;4.90;;;-2.40;99.90;;;;;;4924130;29;20207;-91
2022/11/19 07:45:50;;;;;;;7.47;4.03;;;0.00;99.90;;;;;;4918850;29;20190;-90
2022/11/19 07:48:16;;;;;;;7.33;3.10;;;-2.20;99.90;;;;;;4940597;28;20204;-92
2022/11/19 07:50:42;;;;;;;8.67;6.17;;;;;;;;;;4930064;29;20239;-89
2022/11/19 07:53:08;;;;;;;7.47;5.17;;;-2.00;99.90;;;;;;4934126;29;20225;-91
2022/11/19 07:55:34;;;;;;;8.70;3.93;;;-2.20;99.90;;;;;;4935187;29;20265;-91
2022/11/19 07:57:59;;;;;;;12.03;7.47;;;-0.60;99.90;;;;;;4934384;29;20189;-95
2022/11/19 08:00:25;;;;;;;4.00;3.27;;;;;;;;;;4922394;29;20201;-92
2022/11/19 08:02:51;;;;;;;4.83;4.33;;;-2.10;99.90;;;;;;4938751;29;20655;-92
2022/11/19 08:05:17;;;;;;;7.40;4.03;;;-2.10;99.90;;;;;;4910547;29;20245;-96
2022/11/19 08:07:42;;;;;;;5.37;4.53;;;0.70;99.90;;;;;;4945739;29;20203;-94
2022/11/19 08:10:09;;;;;;;7.57;6.20;;;-1.10;99.90;;;;;;4923401;29;20193;-90
2022/11/19 08:12:35;;;;;;;3.90;2.90;;;-0.20;99.90;;;;;;4937556;29;20216;-90
2022/11/19 08:15:00;;;;;;;6.00;4.83;;;-0.20;99.90;;;;;;4917796;29;20350;-91
2022/11/19 08:20:10;;;;;;;13.30;6.27;;;-2.00;99.90;;;;;;4932692;29;20737;-88
2022/11/19 08:22:37;;;;;;;12.57;6.83;;;-0.80;99.90;;;;;;4930388;29;20192;-88
2022/11/19 08:25:03;;;;;;;7.77;6.43;;;-2.10;99.90;;;;;;4934612;29;20252;-88
2022/11/19 08:27:29;;;;;;;6.03;4.10;;;-2.00;99.90;;;;;;4930050;29;20187;-91
2022/11/19 08:29:54;;;;;;;7.13;3.80;;;-0.20;99.90;;;;;;4912350;29;20191;-89
2022/11/19 08:32:20;;;;;;;4.60;3.33;;;-2.10;99.90;;;;;;4899624;29;20221;-91
2022/11/19 08:34:46;;;;;;;6.63;4.07;;;-2.00;99.90;;;;;;4941166;29;20376;-91
2022/11/19 08:37:12;;;;;;;4.20;3.70;;;0.40;99.90;;;;;;4926555;29;20192;-90
2022/11/19 08:39:39;;;;;;;6.30;2.77;;;-1.90;99.90;;;;;;4926645;29;20180;-91
2022/11/19 08:44:50;;;;;;;2.93;2.67;;;-1.60;99.90;;;;;;4931468;29;20198;-93
2022/11/19 08:47:16;;;;;;;4.37;2.77;;;-2.00;99.90;;;;;;4925003;29;20593;-90
2022/11/19 08:49:41;;;;;;;2.40;2.20;;;-1.90;99.90;;;;;;4924854;29;20267;-89
2022/11/19 08:52:07;;;;;;;4.43;3.67;;;-2.10;99.90;;;;;;4913046;29;20221;-88
2022/11/19 08:54:33;;;;;;;3.33;3.03;;;-1.20;99.90;;;;;;4924338;29;20701;-86
2022/11/19 08:56:58;;;;;;;5.37;3.73;;;-0.90;99.90;;;;;;4920340;29;20632;-87
2022/11/19 08:59:24;;;;;;;4.47;4.07;;;-1.90;99.90;;;;;;4922620;29;20183;-89
2022/11/19 09:01:50;;;;;;;5.90;3.90;;;-1.90;99.90;;;;;;4930800;29;20199;-90
2022/11/19 09:04:16;;;;;;;5.80;4.77;;;-0.60;99.90;;;;;;4925158;29;20662;-89
2022/11/19 09:06:41;;;;;;;6.53;4.83;;;0.80;99.90;;;;;;4945748;28;20190;-92
2022/11/19 09:09:07;;;;;;;4.40;3.57;;;0.80;99.90;;;;;;4934475;29;20185;-94
2022/11/19 09:11:34;;;;;;;6.00;3.77;;;-1.70;99.90;;;;;;4924410;29;20213;-93
2022/11/19 09:13:59;;;;;;;9.43;6.30;;;-1.60;99.90;;;;;;4918803;29;20200;-90
2022/11/19 09:16:25;;;;;;;4.70;3.57;;;-1.60;99.90;;;;;;4921393;29;20180;-92
2022/11/19 09:18:51;;;;;;;11.37;3.77;;;0.50;99.90;;;;;;4918422;29;20190;-95
2022/11/19 09:21:17;;;;;;;14.03;5.23;;;0.90;99.90;;;;;;4933692;29;20202;-94
2022/11/19 09:23:42;;;;;;;6.83;3.93;;;-1.70;99.90;;;;;;4937601;29;20191;-93
2022/11/19 09:26:11;;;;;;;4.10;3.40;;;0.20;99.90;;;;;;4899709;29;20177;-92
2022/11/19 09:28:37;;;;;;;2.57;2.30;;;-1.60;99.90;;;;;;4930572;29;20274;-91
2022/11/19 09:31:08;;;;;;;4.87;3.80;;;-1.50;99.90;;;;;;4933164;29;20631;-90
2022/11/19 09:33:37;;;;;;;6.83;4.07;;;-1.50;99.90;;;;;;4935515;29;20193;-93
2022/11/19 09:36:03;;;;;;;5.80;3.87;;;-1.50;99.90;;;;;;4933897;29;20229;-92
2022/11/19 09:38:33;;;;;;;2.17;2.03;;;-1.40;99.90;;;;;;4935810;29;20194;-94
2022/11/19 09:41:17;;;;;;;5.67;4.03;;;-1.40;99.90;;;;;;4920042;29;20180;-91
2022/11/19 09:44:11;;;;;;;5.70;3.77;;;-1.30;99.90;;;;;;4933291;29;20695;-91
2022/11/19 09:46:45;;;;;;;8.17;5.27;;;-0.10;99.90;;;;;;4930379;29;20187;-92
2022/11/19 09:49:16;;;;;;;5.87;3.57;;;-1.60;99.90;;;;;;4926724;29;20185;-93
2022/11/19 09:51:49;;;;;;;3.83;3.53;;;0.40;99.90;;;;;;4929592;29;20212;-91
2022/11/19 09:54:18;;;;;;;3.23;2.33;;;-0.30;99.90;;;;;;4925462;29;20213;-92
2022/11/19 09:56:46;;;;;;;4.90;4.03;;;-1.60;99.90;;;;;;4934215;29;20184;-94
2022/11/19 09:59:27;;;;;;;6.33;4.23;;;-0.20;99.90;;;;;;4935589;29;20649;-93
2022/11/19 10:01:53;;;;;;;4.47;3.57;;;-1.70;99.90;;;;;;4935224;29;20553;-93
2022/11/19 10:04:22;;;;;;;4.23;3.30;;;1.30;99.90;;;;;;4934649;29;20189;-93
2022/11/19 10:07:17;;;;;;;3.53;3.23;;;-1.80;99.90;;;;;;4935999;29;20190;-91
2022/11/19 10:09:53;;;;;;;6.40;4.30;;;-1.60;99.90;;;;;;4932514;29;20186;-90
2022/11/19 10:12:31;;;;;;;4.07;3.77;;;-1.60;99.90;;;;;;4929546;29;20214;-89
2022/11/19 10:15:23;;;;;;;2.23;2.13;;;-1.70;99.90;;;;;;4930787;29;20213;-92
2022/11/19 10:18:13;;;;;;;2.70;2.17;;;-1.80;99.90;;;;;;4923420;29;20289;-93
2022/11/19 10:20:50;;;;;;;2.67;2.47;;;-1.70;99.90;;;;;;4938574;29;20196;-90
2022/11/19 10:23:37;;;;;;;5.13;4.10;;;-1.70;99.90;;;;;;4928772;29;20216;-91
2022/11/19 10:26:09;;;;;;;6.53;3.43;;;0.60;99.90;;;;;;4933896;29;20183;-90
2022/11/19 10:28:39;;;;;;;2.93;2.70;;;-1.70;99.90;;;;;;4933537;29;20195;-90
2022/11/19 10:31:21;;;;;;;3.87;3.67;;;-1.10;99.90;;;;;;4942675;29;20214;-88
2022/11/19 10:34:09;;;;;;;6.13;2.47;;;-1.70;99.90;;;;;;4932096;29;20183;-89
2022/11/19 10:36:41;;;;;;;3.90;2.57;;;-1.40;99.90;;;;;;4936388;29;20257;-89
2022/11/19 10:39:22;;;;;;;5.37;3.80;;;-1.90;99.90;;;;;;4940366;29;20673;-90
2022/11/19 10:41:54;;;;;;;3.33;3.00;;;-2.00;99.90;;;;;;4937440;29;20193;-92
2022/11/19 10:44:39;;;;;;;5.93;2.80;;;-1.80;99.90;;;;;;4938479;29;20637;-92
2022/11/19 10:47:31;;;;;;;5.43;3.47;;;-1.70;99.90;;;;;;4938195;29;20465;-92
2022/11/19 10:49:56;;;;;;;5.40;3.23;;;-0.40;99.90;;;;;;4938174;29;20199;-93
2022/11/19 10:52:41;;;;;;;5.13;4.30;;;-1.70;99.90;;;;;;4918514;29;20271;-92
2022/11/19 10:55:29;;;;;;;7.27;4.70;;;-1.70;99.90;;;;;;4937703;29;20306;-93
2022/11/19 10:58:10;;;;;;;3.87;3.13;;;-1.70;99.90;;;;;;4930661;29;20634;-91
2022/11/19 11:00:38;;;;;;;3.77;3.20;;;-1.60;99.90;;;;;;4940758;29;20280;-91
2022/11/19 11:03:09;;;;;;;3.07;2.87;;;-1.70;99.90;;;;;;4940967;29;20201;-94
2022/11/19 11:05:55;;;;;;;6.43;3.03;;;1.10;99.90;;;;;;4940564;29;20231;-93
2022/11/19 11:08:21;;;;;;;4.00;3.10;;;-1.60;99.90;;;;;;4938428;29;20280;-90
2022/11/19 11:10:47;;;;;;;5.13;4.63;;;-1.60;99.90;;;;;;4943116;29;20246;-91
2022/11/19 11:16:12;;;;;;;4.77;3.53;;;0.40;99.90;;;;;;4939126;29;20196;-91
2022/11/19 11:18:39;;;;;;;5.03;3.00;;;-1.50;99.90;;;;;;4936775;29;20191;-89
2022/11/19 11:21:09;;;;;;;5.07;3.17;;;-1.50;99.90;;;;;;4937273;29;20187;-91
2022/11/19 11:23:48;;;;;;;2.50;2.40;;;1.20;99.90;;;;;;4935210;29;20191;-91
2022/11/19 11:26:22;;;;;;;3.17;2.97;;;0.60;99.90;;;;;;4927464;29;20206;-91
2022/11/19 11:29:21;;;;;;;7.97;4.20;;;-1.50;99.90;;;;;;4922439;29;20190;-91
2022/11/19 11:31:47;;;;;;;7.37;5.00;;;-1.40;99.90;;;;;;4929857;29;20799;-93
2022/11/19 11:34:37;;;;;;;3.57;3.27;;;-1.50;99.90;;;;;;4924942;29;20287;-89
2022/11/19 11:37:07;;;;;;;4.43;3.47;;;-1.50;99.90;;;;;;4924525;29;20200;-92
2022/11/19 11:39:38;;;;;;;7.30;4.83;;;-1.60;99.90;;;;;;4941931;29;20180;-94
2022/11/19 11:42:10;;;;;;;4.17;3.63;;;-1.70;99.90;;;;;;4938246;29;20269;-94
2022/11/19 11:44:46;;;;;;;6.67;4.37;;;-1.60;99.90;;;;;;4934657;29;20192;-94
2022/11/19 11:47:15;;;;;;;9.13;4.57;;;-1.50;99.90;;;;;;4940299;29;20186;-92
2022/11/19 11:49:46;;;;;;;8.40;3.43;;;-1.70;99.90;;;;;;4929614;29;20187;-93
2022/11/19 11:52:21;;;;;;;3.90;2.30;;;-1.70;99.90;;;;;;4932366;29;20204;-91
2022/11/19 11:54:57;;;;;;;3.57;3.23;;;0.20;99.90;;;;;;4938506;29;20201;-91
2022/11/19 11:57:34;;;;;;;6.17;2.77;;;-1.70;99.90;;;;;;4935025;29;20191;-91
2022/11/19 12:00:20;;;;;;;6.73;4.50;;;-1.70;99.90;;;;;;4934488;29;20240;-93
2022/11/19 12:03:08;;;;;;;2.93;2.73;;;-1.70;99.90;;;;;;4931529;29;20196;-93
2022/11/19 12:05:59;;;;;;;10.60;3.17;;;-1.80;99.90;;;;;;4932635;29;20241;-91
2022/11/19 12:08:53;;;;;;;2.80;2.60;;;-1.80;99.90;;;;;;4936029;29;20191;-90
2022/11/19 12:11:24;;;;;;;6.23;5.40;;;-1.90;99.90;;;;;;4932011;29;20300;-90
2022/11/19 12:13:54;;;;;;;2.93;2.30;;;0.60;99.90;;;;;;4934485;29;20192;-90
2022/11/19 12:16:25;;;;;;;9.60;4.83;;;-1.80;99.90;;;;;;4938390;29;20187;-89
2022/11/19 12:19:19;;;;;;;4.10;3.10;;;-1.70;99.90;;;;;;4941943;29;20283;-90
2022/11/19 12:22:04;;;;;;;4.30;2.17;;;-1.80;99.90;;;;;;4926872;29;20244;-90
2022/11/19 12:25:03;;;;;;;4.43;3.37;;;-1.60;99.90;;;;;;4932337;29;20522;-90
2022/11/19 12:27:52;;;;;;;2.50;2.40;;;-1.60;99.90;;;;;;4932829;29;20182;-90
2022/11/19 12:30:24;;;;;;;3.53;2.57;;;-1.60;99.90;;;;;;4937407;29;20230;-88
2022/11/19 12:33:02;;;;;;;1.63;1.60;;;-1.70;99.90;;;;;;4956575;29;20206;-90
2022/11/19 12:36:09;;;;;;;1.80;1.70;;;-1.70;99.90;;;;;;4958497;29;20183;-90
2022/11/19 12:38:49;;;;;;;2.80;2.17;;;-1.70;99.90;;;;;;4968495;28;20241;-90
2022/11/19 12:41:33;;;;;;;3.03;2.80;;;-1.60;99.90;;;;;;4949331;29;20177;-91
2022/11/19 12:44:01;;;;;;;4.23;2.17;;;-1.70;99.90;;;;;;4950421;28;20196;-91
2022/11/19 12:46:40;;;;;;;3.03;2.30;;;-1.70;99.90;;;;;;4948282;28;20186;-91
2022/11/19 12:49:33;;;;;;;4.10;2.23;;;-0.40;99.90;;;;;;4974103;28;20256;-89
2022/11/19 12:52:26;;;;;;;1.33;1.33;;;-1.80;99.90;;;;;;4958768;28;20275;-90
2022/11/19 12:55:11;;;;;;;2.43;2.23;;;-1.80;99.90;;;;;;4956056;28;20212;-90
2022/11/19 12:58:02;;;;;;;2.97;2.73;;;-0.20;99.90;;;;;;4958306;28;20211;-91
2022/11/19 13:00:29;;;;;;;3.60;3.03;;;-1.80;99.90;;;;;;4952931;28;20221;-92
2022/11/19 13:03:07;;;;;;;4.63;2.60;;;-0.70;99.90;;;;;;4956405;28;20293;-89
2022/11/19 13:05:59;;;;;;;3.27;2.37;;;-0.80;99.90;;;;;;4954759;28;20231;-95
2022/11/19 13:08:37;;;;;;;2.87;2.67;;;-1.70;99.90;;;;;;4954058;28;20195;-90
2022/11/19 13:11:08;;;;;;;1.97;1.87;;;-1.80;99.90;;;;;;4960144;28;20204;-90
2022/11/19 13:13:37;;;;;;;4.00;3.63;;;-1.70;99.90;;;;;;4946061;28;20256;-92
2022/11/19 13:16:14;;;;;;;2.07;1.97;;;0.50;99.90;;;;;;4934301;29;20567;-91
2022/11/19 13:18:45;;;;;;;3.90;2.67;;;-1.80;99.90;;;;;;4937159;29;20315;-92
2022/11/19 13:21:19;;;;;;;1.77;1.67;;;-1.80;99.90;;;;;;4936145;29;20184;-92
2022/11/19 13:23:47;;;;;;;5.63;3.60;;;0.00;99.90;;;;;;4935518;29;20245;-93
2022/11/19 13:26:28;;;;;;;4.17;2.30;;;-2.00;99.90;;;;;;4926802;29;20199;-94
2022/11/19 13:29:02;;;;;;;2.37;2.27;;;-1.90;99.90;;;;;;4934009;29;20188;-93
2022/11/19 13:31:42;;;;;;;5.97;3.97;;;-1.90;99.90;;;;;;4940759;29;20211;-94
2022/11/19 13:34:50;;;;;;;3.93;3.13;;;-2.00;99.90;;;;;;4933593;29;20192;-94
2022/11/19 13:37:38;;;;;;;1.80;1.70;;;-1.80;99.90;;;;;;4928024;29;20901;-96
2022/11/19 13:40:22;;;;;;;4.20;3.90;;;-1.90;99.90;;;;;;4934304;29;20184;-93
2022/11/19 13:45:34;;;;;;;3.23;2.03;;;-2.10;99.90;;;;;;4940227;28;20204;-92
2022/11/19 13:48:23;;;;;;;7.07;3.23;;;-2.20;99.90;;;;;;4935951;29;20262;-94
2022/11/19 13:50:51;;;;;;;1.73;1.63;;;-2.10;99.90;;;;;;4941117;29;20206;-95
2022/11/19 13:53:23;;;;;;;2.10;2.00;;;-2.10;99.90;;;;;;4936305;29;20197;-93
2022/11/19 13:55:59;;;;;;;5.00;2.57;;;-2.10;99.90;;;;;;4937010;29;20202;-92
2022/11/19 13:58:33;;;;;;;3.53;3.13;;;-2.10;99.90;;;;;;4953989;29;20186;-92
2022/11/19 14:01:05;;;;;;;2.03;1.93;;;-2.10;99.90;;;;;;4940207;29;20187;-93
2022/11/19 14:04:24;;;;;;;1.67;1.57;;;-2.10;99.90;;;;;;4945039;29;20187;-95
2022/11/19 14:07:32;;;;;;;3.37;3.00;;;-2.00;99.90;;;;;;4869849;29;20681;-95
2022/11/19 14:10:35;;;;;;;1.73;1.63;;;-2.00;99.90;;;;;;4943066;23;20246;-92